CheckWX is a tool to help pilots better visualize weather data.  It is not intended as a substitute for an official pre-flight weather briefing.

06:44:56 UTC

DAAS METAR
Ain Arnat Airport
Sétif, Algeria
Current

45 mins ago

DAAS 210600Z 34002KT 9999 BKN030 FEW033CB 12/06 Q1017
Observed
May-21 @ 06:00 UTC
Wind
  • 340° at 2 KTS
Visibility
10,000+ meters
Flight Rules
MVFR
Cloud Levels
  • Broken at 3,000' AGL
  • Few at 3,300' AGL
Temperature
12°C / 54°F
Dewpoint
C / 43°F
Humidity
67%
Altimeter
30.03" Hg
Pressure
1016.92 hPa
Previous

2 hours ago

DAAS 210500Z 08004KT 9999 BKN030 12/05 Q1017
Observed
May-21 @ 05:00 UTC
Wind
  • 080° at 4 KTS
Visibility
10,000+ meters
Flight Rules
MVFR
Cloud Levels
  • Broken at 3,000' AGL
Temperature
12°C / 54°F
Dewpoint
C / 41°F
Humidity
63%
Altimeter
30.03" Hg
Pressure
1016.92 hPa
Previous

3 hours ago

DAAS 210400Z 08004KT 9999 SCT030 12/03 Q1017
Observed
May-21 @ 04:00 UTC
Wind
  • 080° at 4 KTS
Visibility
10,000+ meters
Flight Rules
VFR
Cloud Levels
  • Scattered at 3,000' AGL
Temperature
12°C / 54°F
Dewpoint
C / 37°F
Humidity
54%
Altimeter
30.03" Hg
Pressure
1016.92 hPa